Time;durP1;ratioP1;P1;durP2;ratioP2;P2;SDS_P1;SDS_P2;PMS_P1;PMS_P2;Temp;Humidity;BMP_temperature;BMP_pressure;BME280_temperature;BME280_humidity;BME280_pressure;Samples;Min_cycle;Max_cycle;Signal;HPM_P1;HPM_P2
2022/07/19 00:02:20;;;;;;;2.45;2.03;;;;;;;;;;5084976;28;20198;-65
2022/07/19 00:04:49;;;;;;;2.00;1.90;;;;;;;;;;5085225;28;20210;-65
2022/07/19 00:07:16;;;;;;;3.33;2.00;;;;;;;;;;5085140;28;20758;-65
2022/07/19 00:09:43;;;;;;;3.10;2.10;;;;;;;;;;5084972;28;20283;-65
2022/07/19 00:12:12;;;;;;;4.35;2.15;;;;;;;;;;5084042;28;20205;-65
2022/07/19 00:14:39;;;;;;;2.22;1.95;;;;;;;;;;5084828;28;20211;-66
2022/07/19 00:17:07;;;;;;;3.10;2.15;;;;;;;;;;5084672;28;20743;-65
2022/07/19 00:19:34;;;;;;;2.20;2.00;;;;;;;;;;5084364;28;20217;-64
2022/07/19 00:22:02;;;;;;;2.90;2.40;;;;;;;;;;5102837;28;20228;-64
2022/07/19 00:24:29;;;;;;;2.30;2.10;;;;;;;;;;5088523;28;20206;-64
2022/07/19 00:26:56;;;;;;;3.60;2.08;;;;;;;;;;5083274;28;20271;-64
2022/07/19 00:29:23;;;;;;;2.88;2.10;;;;;;;;;;5084825;28;20617;-64
2022/07/19 00:31:50;;;;;;;4.22;2.20;;;;;;;;;;5085359;28;20205;-64
2022/07/19 00:34:17;;;;;;;2.45;2.25;;;;;;;;;;5084382;28;20215;-64
2022/07/19 00:36:44;;;;;;;2.75;2.15;;;;;;;;;;5065606;28;20307;-64
2022/07/19 00:39:12;;;;;;;2.38;2.00;;;;;;;;;;5071018;28;20202;-64
2022/07/19 00:41:41;;;;;;;2.47;2.33;;;;;;;;;;5084038;28;20291;-63
2022/07/19 00:44:08;;;;;;;2.15;2.05;;;;;;;;;;5083737;28;20205;-67
2022/07/19 00:46:36;;;;;;;3.42;2.10;;;;;;;;;;5084198;28;20210;-65
2022/07/19 00:49:03;;;;;;;2.10;2.05;;;;;;;;;;5083630;28;20251;-64
2022/07/19 00:51:30;;;;;;;3.17;2.38;;;;;;;;;;5084428;28;20202;-65
2022/07/19 00:53:58;;;;;;;2.42;2.20;;;;;;;;;;5084290;28;20367;-64
2022/07/19 00:56:27;;;;;;;2.30;2.17;;;;;;;;;;5084268;28;20731;-65
2022/07/19 00:58:55;;;;;;;4.57;2.00;;;;;;;;;;5072906;28;20671;-64
2022/07/19 01:01:22;;;;;;;2.40;2.30;;;;;;;;;;5083999;28;20222;-64
2022/07/19 01:03:49;;;;;;;3.13;2.40;;;;;;;;;;5084209;28;20575;-64
2022/07/19 01:06:16;;;;;;;2.50;2.40;;;;;;;;;;5083256;28;20209;-64
2022/07/19 01:08:43;;;;;;;1.88;1.88;;;;;;;;;;5082442;28;20209;-64
2022/07/19 01:11:10;;;;;;;2.78;2.28;;;;;;;;;;5083452;28;20212;-65
2022/07/19 01:13:39;;;;;;;2.35;2.08;;;;;;;;;;5083711;28;20276;-64
2022/07/19 01:16:06;;;;;;;2.70;2.50;;;;;;;;;;5084569;28;20432;-65
2022/07/19 01:18:33;;;;;;;2.20;2.20;;;;;;;;;;5084714;28;20287;-65
2022/07/19 01:21:00;;;;;;;2.45;2.00;;;;;;;;;;5083960;28;20234;-65
2022/07/19 01:23:29;;;;;;;3.10;2.72;;;;;;;;;;5084671;28;20252;-65
2022/07/19 01:25:56;;;;;;;2.80;2.63;;;;;;;;;;5084457;28;20217;-65
2022/07/19 01:28:23;;;;;;;3.88;2.28;;;;;;;;;;5084043;28;20684;-65
2022/07/19 01:30:51;;;;;;;1.83;1.83;;;;;;;;;;5083805;28;20206;-65
2022/07/19 01:33:18;;;;;;;2.90;2.17;;;;;;;;;;5083947;28;20207;-64
2022/07/19 01:35:45;;;;;;;3.15;2.33;;;;;;;;;;5083749;28;20202;-64
2022/07/19 01:38:12;;;;;;;2.92;2.20;;;;;;;;;;5085746;28;20210;-64
2022/07/19 01:40:41;;;;;;;10.60;2.53;;;;;;;;;;5087837;28;20214;-64
2022/07/19 01:43:08;;;;;;;2.03;1.92;;;;;;;;;;5088083;28;20206;-64
2022/07/19 01:45:35;;;;;;;2.40;2.20;;;;;;;;;;5087546;28;20248;-66
2022/07/19 01:48:03;;;;;;;2.20;2.10;;;;;;;;;;5091925;28;20198;-64
2022/07/19 01:50:30;;;;;;;1.90;1.90;;;;;;;;;;5091624;28;20208;-64
2022/07/19 01:52:57;;;;;;;2.08;1.98;;;;;;;;;;5091805;28;20202;-64
2022/07/19 01:55:24;;;;;;;1.70;1.70;;;;;;;;;;5089782;28;20363;-64
2022/07/19 01:57:52;;;;;;;2.85;2.42;;;;;;;;;;5091212;28;20231;-66
2022/07/19 02:00:19;;;;;;;4.70;2.53;;;;;;;;;;5086540;28;20817;-65
2022/07/19 02:02:46;;;;;;;3.28;2.20;;;;;;;;;;5079086;28;20728;-64
2022/07/19 02:05:13;;;;;;;2.25;2.05;;;;;;;;;;5085028;28;20213;-64
2022/07/19 02:07:40;;;;;;;2.70;2.28;;;;;;;;;;5090960;28;20202;-67
2022/07/19 02:10:08;;;;;;;1.88;1.88;;;;;;;;;;5091148;28;20206;-64
2022/07/19 02:12:35;;;;;;;2.10;2.00;;;;;;;;;;5091811;28;20202;-65
2022/07/19 02:15:04;;;;;;;4.00;2.50;;;;;;;;;;5091272;28;20251;-65
2022/07/19 02:17:31;;;;;;;2.92;2.50;;;;;;;;;;5091835;28;20226;-65
2022/07/19 02:20:01;;;;;;;2.20;2.03;;;;;;;;;;5091013;28;20286;-64
2022/07/19 02:22:28;;;;;;;2.83;2.42;;;;;;;;;;5090646;28;20309;-65
2022/07/19 02:24:55;;;;;;;2.60;2.50;;;;;;;;;;5091091;28;20675;-64
2022/07/19 02:27:22;;;;;;;2.50;2.22;;;;;;;;;;5091514;28;20293;-64
2022/07/19 02:29:49;;;;;;;2.63;2.42;;;;;;;;;;5091843;28;20210;-65
2022/07/19 02:32:18;;;;;;;2.80;2.60;;;;;;;;;;5091675;28;20309;-64
2022/07/19 02:34:45;;;;;;;2.40;2.30;;;;;;;;;;5091035;28;20213;-65
2022/07/19 02:37:12;;;;;;;3.38;2.10;;;;;;;;;;5091463;28;20210;-64
2022/07/19 02:39:39;;;;;;;2.80;2.70;;;;;;;;;;5091272;28;20251;-65
2022/07/19 02:42:06;;;;;;;2.33;2.20;;;;;;;;;;5090905;28;20223;-65
2022/07/19 02:44:33;;;;;;;2.60;2.50;;;;;;;;;;5091093;28;20213;-64
2022/07/19 02:47:00;;;;;;;2.85;2.55;;;;;;;;;;5090881;28;20428;-65
2022/07/19 02:49:28;;;;;;;7.43;2.30;;;;;;;;;;5089868;28;20721;-65
2022/07/19 02:51:55;;;;;;;2.42;2.30;;;;;;;;;;5091020;28;20191;-65
2022/07/19 02:54:22;;;;;;;2.78;2.67;;;;;;;;;;5090419;28;20221;-65
2022/07/19 02:56:50;;;;;;;3.42;2.60;;;;;;;;;;5089794;28;20230;-65
2022/07/19 02:59:17;;;;;;;2.75;2.55;;;;;;;;;;5090899;28;20289;-65
2022/07/19 03:01:44;;;;;;;2.45;2.35;;;;;;;;;;5089574;28;20230;-65
2022/07/19 03:04:11;;;;;;;2.78;2.35;;;;;;;;;;5089459;28;20660;-66
2022/07/19 03:06:39;;;;;;;3.72;2.42;;;;;;;;;;5089153;28;20202;-65
2022/07/19 03:09:06;;;;;;;3.90;2.20;;;;;;;;;;5089433;28;20210;-65
2022/07/19 03:11:33;;;;;;;5.47;2.40;;;;;;;;;;5089788;28;20207;-65
2022/07/19 03:14:00;;;;;;;2.58;2.38;;;;;;;;;;5089822;28;20205;-66
2022/07/19 03:16:27;;;;;;;4.93;2.50;;;;;;;;;;5089161;28;20259;-66
2022/07/19 03:18:54;;;;;;;3.13;2.38;;;;;;;;;;5089712;28;20213;-65
2022/07/19 03:21:21;;;;;;;2.22;2.13;;;;;;;;;;5090568;28;20644;-66
2022/07/19 03:23:49;;;;;;;3.05;2.22;;;;;;;;;;5089239;28;20770;-66
2022/07/19 03:26:16;;;;;;;3.25;2.42;;;;;;;;;;5088516;28;20203;-65
2022/07/19 03:28:43;;;;;;;2.70;2.13;;;;;;;;;;5088772;28;20202;-65
2022/07/19 03:31:10;;;;;;;2.53;2.42;;;;;;;;;;5087598;28;20615;-65
2022/07/19 03:33:37;;;;;;;2.97;2.20;;;;;;;;;;5088364;28;20210;-65
2022/07/19 03:36:05;;;;;;;6.53;2.88;;;;;;;;;;5088059;28;20271;-66
2022/07/19 03:38:33;;;;;;;3.47;2.33;;;;;;;;;;5087093;28;20203;-65
2022/07/19 03:41:01;;;;;;;2.85;2.30;;;;;;;;;;5087174;28;20195;-65
2022/07/19 03:43:28;;;;;;;2.67;2.47;;;;;;;;;;5087703;28;20659;-65
2022/07/19 03:45:55;;;;;;;3.70;2.70;;;;;;;;;;5087531;28;20705;-65
2022/07/19 03:48:22;;;;;;;3.75;2.60;;;;;;;;;;5087413;28;20206;-64
2022/07/19 03:50:49;;;;;;;2.45;2.35;;;;;;;;;;5088016;28;20210;-65
2022/07/19 03:53:16;;;;;;;2.30;2.17;;;;;;;;;;5087257;28;20248;-65
2022/07/19 03:55:43;;;;;;;2.70;2.60;;;;;;;;;;5087339;28;20249;-66
2022/07/19 03:58:11;;;;;;;3.33;2.25;;;;;;;;;;5089062;28;20788;-66
2022/07/19 04:00:39;;;;;;;2.30;2.30;;;;;;;;;;5088612;28;20252;-65
2022/07/19 04:03:06;;;;;;;3.28;2.35;;;;;;;;;;5088233;28;20799;-66
2022/07/19 04:05:33;;;;;;;5.30;2.80;;;;;;;;;;5088633;28;20205;-66
2022/07/19 04:08:00;;;;;;;4.45;2.20;;;;;;;;;;5088848;28;20751;-67
2022/07/19 04:10:27;;;;;;;4.25;2.45;;;;;;;;;;5087987;28;20369;-66
2022/07/19 04:12:54;;;;;;;2.78;2.58;;;;;;;;;;5089691;28;20202;-65
2022/07/19 04:15:22;;;;;;;4.90;2.78;;;;;;;;;;5088390;28;20217;-66
2022/07/19 04:17:49;;;;;;;3.65;2.78;;;;;;;;;;5087347;28;20214;-66
2022/07/19 04:20:17;;;;;;;2.90;2.40;;;;;;;;;;5091487;28;20664;-65
2022/07/19 04:22:44;;;;;;;8.57;2.55;;;;;;;;;;5089190;28;20233;-66
2022/07/19 04:25:11;;;;;;;3.30;2.40;;;;;;;;;;5087548;28;20198;-66
2022/07/19 04:27:38;;;;;;;3.42;2.65;;;;;;;;;;5085853;28;20217;-66
2022/07/19 04:30:05;;;;;;;3.53;2.40;;;;;;;;;;5087571;28;20202;-66
2022/07/19 04:32:34;;;;;;;7.20;2.55;;;;;;;;;;5089678;28;20264;-66
2022/07/19 04:35:01;;;;;;;2.78;2.30;;;;;;;;;;5087790;28;20289;-66
2022/07/19 04:37:28;;;;;;;2.67;2.22;;;;;;;;;;5089283;28;20198;-65
2022/07/19 04:39:55;;;;;;;3.80;2.47;;;;;;;;;;5089247;28;20615;-66
2022/07/19 04:42:23;;;;;;;2.33;2.13;;;;;;;;;;5089218;28;20287;-65
2022/07/19 04:44:50;;;;;;;2.97;2.78;;;;;;;;;;5088374;28;20558;-66
2022/07/19 04:47:17;;;;;;;2.85;1.98;;;;;;;;;;5087230;28;20271;-66
2022/07/19 04:49:45;;;;;;;2.30;2.20;;;;;;;;;;5086842;28;20214;-67
2022/07/19 04:52:12;;;;;;;5.88;2.45;;;;;;;;;;5087711;28;20199;-66
2022/07/19 04:54:39;;;;;;;4.68;2.50;;;;;;;;;;5087622;28;20340;-65
2022/07/19 04:57:06;;;;;;;2.78;2.30;;;;;;;;;;5086462;28;20268;-63
2022/07/19 04:59:33;;;;;;;2.67;2.30;;;;;;;;;;5089161;28;20214;-64
2022/07/19 05:02:00;;;;;;;2.85;2.20;;;;;;;;;;5084392;28;20308;-66
2022/07/19 05:04:27;;;;;;;3.75;2.40;;;;;;;;;;5084769;28;20691;-64
2022/07/19 05:06:57;;;;;;;2.35;2.13;;;;;;;;;;5086614;28;20206;-65
2022/07/19 05:09:25;;;;;;;5.22;2.17;;;;;;;;;;5084830;28;20808;-65
2022/07/19 05:11:52;;;;;;;3.08;2.67;;;;;;;;;;5087250;28;20202;-64
2022/07/19 05:14:21;;;;;;;4.38;2.60;;;;;;;;;;5089316;28;20198;-64
2022/07/19 05:16:49;;;;;;;5.40;2.20;;;;;;;;;;5086972;28;20218;-64
2022/07/19 05:19:16;;;;;;;4.32;2.17;;;;;;;;;;5090623;28;20203;-65
2022/07/19 05:21:44;;;;;;;3.60;2.38;;;;;;;;;;5090053;28;20207;-65
2022/07/19 05:24:12;;;;;;;2.65;2.20;;;;;;;;;;5090381;28;20225;-65
2022/07/19 05:26:39;;;;;;;2.30;2.20;;;;;;;;;;5090393;28;20214;-65
2022/07/19 05:29:06;;;;;;;4.43;1.90;;;;;;;;;;5087054;28;20210;-65
2022/07/19 05:31:33;;;;;;;3.70;2.20;;;;;;;;;;5089292;28;20206;-64
2022/07/19 05:34:00;;;;;;;1.98;1.88;;;;;;;;;;5089959;28;20201;-64
2022/07/19 05:36:27;;;;;;;2.63;2.13;;;;;;;;;;5090406;28;20275;-65
2022/07/19 05:38:55;;;;;;;3.17;2.45;;;;;;;;;;5090678;28;20244;-64
2022/07/19 05:41:24;;;;;;;3.40;2.10;;;;;;;;;;5088121;28;20198;-64
2022/07/19 05:43:51;;;;;;;2.85;1.83;;;;;;;;;;5090172;28;20225;-65
2022/07/19 05:46:18;;;;;;;4.22;1.90;;;;;;;;;;5090149;28;20218;-64
2022/07/19 05:48:45;;;;;;;3.05;1.63;;;;;;;;;;5090908;28;20214;-65
2022/07/19 05:51:12;;;;;;;1.77;1.67;;;;;;;;;;5090236;28;20203;-64
2022/07/19 05:53:39;;;;;;;2.03;1.85;;;;;;;;;;5089878;28;20664;-65
2022/07/19 05:56:07;;;;;;;2.13;2.03;;;;;;;;;;5089945;28;20291;-65
2022/07/19 05:58:35;;;;;;;2.38;2.17;;;;;;;;;;5089603;28;20233;-65
2022/07/19 06:01:22;;;;;;;5.68;2.00;;;;;;;;;;5089944;28;20582;-65
2022/07/19 06:03:50;;;;;;;1.90;1.80;;;;;;;;;;5087422;28;20647;-64
2022/07/19 06:06:17;;;;;;;2.08;1.98;;;;;;;;;;5089767;28;20667;-65
2022/07/19 06:08:45;;;;;;;1.98;1.70;;;;;;;;;;5089939;28;20198;-64
2022/07/19 06:11:12;;;;;;;6.60;2.05;;;;;;;;;;5089621;28;20567;-65
2022/07/19 06:13:40;;;;;;;3.55;1.83;;;;;;;;;;5088908;28;20206;-65
2022/07/19 06:16:08;;;;;;;3.83;1.80;;;;;;;;;;5089888;28;20198;-65
2022/07/19 06:18:35;;;;;;;3.88;1.55;;;;;;;;;;5089222;28;20583;-65
2022/07/19 06:21:02;;;;;;;1.88;1.63;;;;;;;;;;5090744;28;20198;-65
2022/07/19 06:23:29;;;;;;;5.03;1.98;;;;;;;;;;5089222;28;20321;-64
2022/07/19 06:25:57;;;;;;;1.73;1.63;;;;;;;;;;5088654;28;20202;-66
2022/07/19 06:28:25;;;;;;;3.33;2.00;;;;;;;;;;5089371;28;20217;-65
2022/07/19 06:30:53;;;;;;;5.30;1.73;;;;;;;;;;5089820;28;20198;-64
2022/07/19 06:33:21;;;;;;;2.13;1.90;;;;;;;;;;5089763;28;20191;-66
2022/07/19 06:35:48;;;;;;;2.28;1.70;;;;;;;;;;5089411;28;20680;-66
2022/07/19 06:38:15;;;;;;;3.28;2.00;;;;;;;;;;5089622;28;20656;-66
2022/07/19 06:40:42;;;;;;;2.65;1.60;;;;;;;;;;5089764;28;20206;-65
2022/07/19 06:43:09;;;;;;;2.90;2.00;;;;;;;;;;5090117;28;20230;-66
2022/07/19 06:45:36;;;;;;;5.15;1.88;;;;;;;;;;5090177;28;20263;-64
2022/07/19 06:48:05;;;;;;;4.60;1.80;;;;;;;;;;5091055;28;20205;-65
2022/07/19 06:50:32;;;;;;;5.75;2.05;;;;;;;;;;5090663;28;20202;-65
2022/07/19 06:52:59;;;;;;;3.25;1.80;;;;;;;;;;5090184;28;20274;-65
2022/07/19 06:55:26;;;;;;;2.38;1.85;;;;;;;;;;5090137;28;20761;-66
2022/07/19 06:57:53;;;;;;;1.80;1.70;;;;;;;;;;5087644;28;20216;-63
2022/07/19 07:00:20;;;;;;;3.95;1.88;;;;;;;;;;5089535;28;20206;-63
2022/07/19 07:02:47;;;;;;;5.35;2.10;;;;;;;;;;5088865;28;20227;-65
2022/07/19 07:05:16;;;;;;;6.47;2.33;;;;;;;;;;5090361;28;20263;-63
2022/07/19 07:07:43;;;;;;;2.30;2.20;;;;;;;;;;5088818;28;20224;-64
2022/07/19 07:10:10;;;;;;;2.70;1.73;;;;;;;;;;5089698;28;20202;-66
2022/07/19 07:12:38;;;;;;;4.10;1.83;;;;;;;;;;5087099;28;20195;-66
2022/07/19 07:15:05;;;;;;;1.95;1.85;;;;;;;;;;5088203;28;20214;-65
2022/07/19 07:17:32;;;;;;;2.67;1.90;;;;;;;;;;5087738;28;20213;-64
2022/07/19 07:19:59;;;;;;;3.50;1.83;;;;;;;;;;5088465;28;20207;-65
2022/07/19 07:22:28;;;;;;;2.22;1.65;;;;;;;;;;5088403;28;21499;-65
2022/07/19 07:24:55;;;;;;;4.00;2.08;;;;;;;;;;5087069;28;20637;-65
2022/07/19 07:27:22;;;;;;;3.05;1.98;;;;;;;;;;5086903;28;20207;-65
2022/07/19 07:29:49;;;;;;;1.98;1.77;;;;;;;;;;5087989;28;20255;-65
2022/07/19 07:32:16;;;;;;;6.07;2.28;;;;;;;;;;5086534;28;20656;-66
2022/07/19 07:34:43;;;;;;;5.63;1.63;;;;;;;;;;5087066;28;20198;-68
2022/07/19 07:37:10;;;;;;;4.85;1.88;;;;;;;;;;5087610;28;20248;-68
2022/07/19 07:39:38;;;;;;;1.83;1.73;;;;;;;;;;5087993;28;20206;-66
2022/07/19 07:42:06;;;;;;;2.00;1.88;;;;;;;;;;5087603;28;20252;-68
2022/07/19 07:44:33;;;;;;;2.15;2.05;;;;;;;;;;5084714;28;20211;-67
2022/07/19 07:47:00;;;;;;;2.78;1.77;;;;;;;;;;5086818;28;20247;-66
2022/07/19 07:49:27;;;;;;;4.03;2.08;;;;;;;;;;5087309;28;20209;-67
2022/07/19 07:51:54;;;;;;;2.42;2.17;;;;;;;;;;5087846;28;20210;-64
2022/07/19 07:54:21;;;;;;;3.17;1.92;;;;;;;;;;5087559;28;20256;-63
2022/07/19 07:56:50;;;;;;;2.15;2.00;;;;;;;;;;5085548;28;20237;-62
2022/07/19 07:59:17;;;;;;;3.60;1.98;;;;;;;;;;5085466;28;20579;-63
2022/07/19 08:01:44;;;;;;;4.38;2.17;;;;;;;;;;5085068;28;20268;-63
2022/07/19 08:04:11;;;;;;;2.28;2.05;;;;;;;;;;5086017;28;20222;-63
2022/07/19 08:06:38;;;;;;;2.33;2.13;;;;;;;;;;5085767;28;20213;-63
2022/07/19 08:09:05;;;;;;;3.30;1.67;;;;;;;;;;5082494;28;20293;-62
2022/07/19 08:11:33;;;;;;;2.00;1.90;;;;;;;;;;5087699;28;20301;-63
2022/07/19 08:14:01;;;;;;;2.85;1.60;;;;;;;;;;5086396;28;20203;-62
2022/07/19 08:16:28;;;;;;;2.00;1.90;;;;;;;;;;5086511;28;20210;-64
2022/07/19 08:18:55;;;;;;;7.13;2.25;;;;;;;;;;5087395;28;20244;-63
2022/07/19 08:21:22;;;;;;;1.80;1.80;;;;;;;;;;5086697;28;20201;-63
2022/07/19 08:23:49;;;;;;;2.22;2.00;;;;;;;;;;5087898;28;20271;-63
2022/07/19 08:26:16;;;;;;;2.10;1.92;;;;;;;;;;5086907;28;20207;-64
2022/07/19 08:28:46;;;;;;;2.17;1.88;;;;;;;;;;5086917;28;20210;-64
2022/07/19 08:31:14;;;;;;;2.17;1.90;;;;;;;;;;5087160;28;20198;-63
2022/07/19 08:33:42;;;;;;;1.98;1.88;;;;;;;;;;5087696;28;20239;-63
2022/07/19 08:36:10;;;;;;;1.75;1.73;;;;;;;;;;5087616;28;20206;-63
2022/07/19 08:38:37;;;;;;;2.22;2.00;;;;;;;;;;5087146;28;20281;-64
2022/07/19 08:41:04;;;;;;;2.10;2.00;;;;;;;;;;5085122;28;20204;-63
2022/07/19 08:43:31;;;;;;;1.65;1.65;;;;;;;;;;5087108;28;20291;-64
2022/07/19 08:46:00;;;;;;;1.98;1.80;;;;;;;;;;5087977;28;20221;-64
2022/07/19 08:48:31;;;;;;;2.20;2.00;;;;;;;;;;5090031;28;20300;-63
2022/07/19 08:50:59;;;;;;;2.97;1.83;;;;;;;;;;5090982;28;20229;-63
2022/07/19 08:53:26;;;;;;;2.15;1.75;;;;;;;;;;5091879;28;20220;-64
2022/07/19 08:55:53;;;;;;;5.13;1.60;;;;;;;;;;5090936;28;20237;-63
2022/07/19 08:58:19;;;;;;;1.55;1.55;;;;;;;;;;5091517;28;20201;-63
2022/07/19 09:00:46;;;;;;;2.60;1.95;;;;;;;;;;5091479;28;20197;-64
2022/07/19 09:03:13;;;;;;;6.28;2.17;;;;;;;;;;5090987;28;20604;-64
2022/07/19 09:05:41;;;;;;;5.18;1.80;;;;;;;;;;5090912;28;20214;-64
2022/07/19 09:08:11;;;;;;;4.80;1.90;;;;;;;;;;5090283;28;20595;-63
2022/07/19 09:10:39;;;;;;;2.10;1.90;;;;;;;;;;5090993;28;20209;-63
2022/07/19 09:13:08;;;;;;;1.92;1.83;;;;;;;;;;5091049;28;20243;-63
2022/07/19 09:15:54;;;;;;;2.10;1.88;;;;;;;;;;5090886;28;20651;-64
2022/07/19 09:18:21;;;;;;;2.25;1.92;;;;;;;;;;5087631;28;20204;-64
2022/07/19 09:20:51;;;;;;;1.73;1.55;;;;;;;;;;5090517;28;20209;-64
2022/07/19 09:23:18;;;;;;;4.00;2.00;;;;;;;;;;5089711;28;20221;-63
2022/07/19 09:25:48;;;;;;;2.05;1.50;;;;;;;;;;5090896;28;20210;-63
2022/07/19 09:28:15;;;;;;;3.45;2.10;;;;;;;;;;5091177;28;20263;-64
2022/07/19 09:30:43;;;;;;;1.98;1.88;;;;;;;;;;5090530;28;20202;-63
2022/07/19 09:33:11;;;;;;;2.40;2.20;;;;;;;;;;5091486;28;20219;-63
2022/07/19 09:35:40;;;;;;;1.83;1.80;;;;;;;;;;5090616;28;20202;-64
2022/07/19 09:38:23;;;;;;;2.08;1.88;;;;;;;;;;5090740;28;20627;-64
2022/07/19 09:40:51;;;;;;;1.73;1.73;;;;;;;;;;5090070;28;20208;-64
2022/07/19 09:43:19;;;;;;;1.67;1.60;;;;;;;;;;5090238;28;20205;-63
2022/07/19 09:45:46;;;;;;;1.60;1.60;;;;;;;;;;5090972;28;20208;-63
2022/07/19 09:48:13;;;;;;;1.50;1.40;;;;;;;;;;5090298;28;20202;-63
2022/07/19 09:50:40;;;;;;;1.58;1.48;;;;;;;;;;5090349;28;20209;-63
2022/07/19 09:53:07;;;;;;;1.98;1.67;;;;;;;;;;5090027;28;20233;-64
2022/07/19 09:55:36;;;;;;;1.92;1.30;;;;;;;;;;5089497;28;20349;-64
2022/07/19 09:58:03;;;;;;;4.00;1.63;;;;;;;;;;5090490;28;20198;-64
2022/07/19 10:00:31;;;;;;;1.40;1.40;;;;;;;;;;5089836;28;20194;-64
2022/07/19 10:02:59;;;;;;;1.63;1.50;;;;;;;;;;5089936;28;20739;-64
2022/07/19 10:05:27;;;;;;;1.40;1.40;;;;;;;;;;5089080;28;20232;-65
2022/07/19 10:07:54;;;;;;;1.17;1.15;;;;;;;;;;5090375;28;20217;-66
2022/07/19 10:10:23;;;;;;;2.05;1.70;;;;;;;;;;5090058;28;20206;-65
2022/07/19 10:12:52;;;;;;;2.35;1.60;;;;;;;;;;5089209;28;20202;-65
2022/07/19 10:15:20;;;;;;;3.30;1.80;;;;;;;;;;5086012;28;20267;-65
2022/07/19 10:18:02;;;;;;;1.90;1.80;;;;;;;;;;5089988;28;20221;-64
2022/07/19 10:20:30;;;;;;;2.30;1.40;;;;;;;;;;5088604;28;20292;-65
2022/07/19 10:22:59;;;;;;;1.67;1.60;;;;;;;;;;5087199;28;20213;-63
2022/07/19 10:25:26;;;;;;;1.40;1.30;;;;;;;;;;5088200;28;20218;-63
2022/07/19 10:27:55;;;;;;;2.58;1.45;;;;;;;;;;5089449;28;20197;-61
2022/07/19 10:30:40;;;;;;;1.60;1.60;;;;;;;;;;5090396;28;20233;-66
2022/07/19 10:33:26;;;;;;;3.90;2.15;;;;;;;;;;5090839;28;20573;-65
2022/07/19 10:35:53;;;;;;;2.35;1.60;;;;;;;;;;5089068;28;20214;-65
2022/07/19 10:38:20;;;;;;;1.60;1.55;;;;;;;;;;5098543;28;20255;-64
2022/07/19 10:40:49;;;;;;;3.83;1.50;;;;;;;;;;5092339;28;20671;-66
2022/07/19 10:43:18;;;;;;;1.60;1.50;;;;;;;;;;5086546;28;20442;-61
2022/07/19 10:46:05;;;;;;;3.83;1.60;;;;;;;;;;5087285;28;20290;-65
2022/07/19 10:48:36;;;;;;;4.10;1.52;;;;;;;;;;5104616;28;20217;-65
2022/07/19 10:51:04;;;;;;;2.05;1.50;;;;;;;;;;5090716;28;20267;-65
2022/07/19 10:53:59;;;;;;;2.35;1.75;;;;;;;;;;5090951;28;20209;-64
2022/07/19 10:56:33;;;;;;;4.90;1.58;;;;;;;;;;5089868;28;20248;-65
2022/07/19 10:59:02;;;;;;;1.63;1.52;;;;;;;;;;5089648;28;20198;-65
2022/07/19 11:01:33;;;;;;;3.03;1.67;;;;;;;;;;5088506;28;20240;-64
2022/07/19 11:04:15;;;;;;;3.30;1.77;;;;;;;;;;5089517;28;20884;-64
2022/07/19 11:06:42;;;;;;;1.40;1.40;;;;;;;;;;5089115;28;20217;-64
2022/07/19 11:09:09;;;;;;;3.45;2.20;;;;;;;;;;5085841;28;20300;-64
2022/07/19 11:11:36;;;;;;;1.55;1.55;;;;;;;;;;5092314;28;20197;-64
2022/07/19 11:14:05;;;;;;;3.65;1.83;;;;;;;;;;5104708;28;20197;-64
2022/07/19 11:16:32;;;;;;;1.60;1.58;;;;;;;;;;5093029;28;20333;-65
2022/07/19 11:19:03;;;;;;;4.10;2.00;;;;;;;;;;5097658;28;20300;-65
2022/07/19 11:21:32;;;;;;;6.65;1.70;;;;;;;;;;5089411;28;20293;-65
2022/07/19 11:23:59;;;;;;;2.35;1.80;;;;;;;;;;5088897;28;20253;-65
2022/07/19 11:26:27;;;;;;;2.13;1.90;;;;;;;;;;5089267;28;20193;-65
2022/07/19 11:28:54;;;;;;;1.70;1.60;;;;;;;;;;5089276;28;20285;-65
2022/07/19 11:31:23;;;;;;;5.25;1.80;;;;;;;;;;5089028;28;20214;-65
2022/07/19 11:33:52;;;;;;;2.55;1.67;;;;;;;;;;5089229;28;20202;-65
2022/07/19 11:36:20;;;;;;;2.42;1.65;;;;;;;;;;5089206;28;20194;-65
2022/07/19 11:38:49;;;;;;;1.88;1.77;;;;;;;;;;5089499;28;20198;-65
2022/07/19 11:41:18;;;;;;;2.20;1.88;;;;;;;;;;5089927;28;20228;-65
2022/07/19 11:43:45;;;;;;;2.15;2.05;;;;;;;;;;5089317;28;20232;-64
2022/07/19 11:46:12;;;;;;;2.60;1.70;;;;;;;;;;5089593;28;20812;-64
2022/07/19 11:48:40;;;;;;;1.83;1.55;;;;;;;;;;5089576;28;20210;-65
2022/07/19 11:51:08;;;;;;;1.75;1.65;;;;;;;;;;5088875;28;20208;-65
2022/07/19 11:53:36;;;;;;;1.60;1.58;;;;;;;;;;5089645;28;20565;-66
2022/07/19 11:56:04;;;;;;;1.70;1.60;;;;;;;;;;5089231;28;21099;-66
2022/07/19 11:58:31;;;;;;;2.10;1.90;;;;;;;;;;5089029;28;20201;-65
2022/07/19 12:01:02;;;;;;;1.88;1.77;;;;;;;;;;5089801;28;20255;-64
2022/07/19 12:03:29;;;;;;;1.85;1.60;;;;;;;;;;5089755;28;20241;-64
2022/07/19 12:05:59;;;;;;;1.60;1.60;;;;;;;;;;5089641;28;20268;-64
2022/07/19 12:08:36;;;;;;;2.72;1.73;;;;;;;;;;5088564;28;20220;-64
2022/07/19 12:11:16;;;;;;;2.10;2.00;;;;;;;;;;5089412;28;20696;-64
2022/07/19 12:13:43;;;;;;;2.20;2.10;;;;;;;;;;5088658;28;20267;-63
2022/07/19 12:16:11;;;;;;;1.60;1.60;;;;;;;;;;5088691;28;20209;-64
2022/07/19 12:18:45;;;;;;;4.90;2.03;;;;;;;;;;5088735;28;20209;-64
2022/07/19 12:21:18;;;;;;;2.08;1.88;;;;;;;;;;5077607;28;20204;-63
2022/07/19 12:24:00;;;;;;;3.50;1.90;;;;;;;;;;5088725;28;20278;-64
2022/07/19 12:26:27;;;;;;;1.60;1.60;;;;;;;;;;5087512;28;20201;-64
2022/07/19 12:28:54;;;;;;;1.92;1.83;;;;;;;;;;5080421;28;20282;-64
2022/07/19 12:31:21;;;;;;;2.28;1.70;;;;;;;;;;5084779;28;20210;-63
2022/07/19 12:33:48;;;;;;;2.17;1.88;;;;;;;;;;5084827;28;20209;-63
2022/07/19 12:36:30;;;;;;;2.30;2.10;;;;;;;;;;5083982;28;20209;-63
2022/07/19 12:38:59;;;;;;;2.40;2.28;;;;;;;;;;5084201;28;20210;-63
2022/07/19 12:41:26;;;;;;;2.88;2.08;;;;;;;;;;5084535;28;20209;-63
2022/07/19 12:43:53;;;;;;;1.60;1.60;;;;;;;;;;5084703;28;20216;-63
2022/07/19 12:46:20;;;;;;;2.15;1.80;;;;;;;;;;5084463;28;20248;-64
2022/07/19 12:48:47;;;;;;;4.25;2.13;;;;;;;;;;5080607;28;20213;-64
2022/07/19 12:51:14;;;;;;;2.35;1.98;;;;;;;;;;5083776;28;20202;-64
2022/07/19 12:53:41;;;;;;;3.83;2.03;;;;;;;;;;5084255;28;20209;-63
2022/07/19 12:56:09;;;;;;;2.13;1.92;;;;;;;;;;5083895;28;20750;-64
2022/07/19 13:01:24;;;;;;;2.08;1.92;;;;;;;;;;5083857;28;20203;-63
2022/07/19 13:03:51;;;;;;;4.00;2.05;;;;;;;;;;5083887;28;20255;-63
2022/07/19 13:06:18;;;;;;;4.03;1.77;;;;;;;;;;5083592;28;20778;-62
2022/07/19 13:08:45;;;;;;;1.92;1.90;;;;;;;;;;5083374;28;20272;-64
2022/07/19 13:11:14;;;;;;;2.15;1.80;;;;;;;;;;5084007;28;20267;-64
2022/07/19 13:13:41;;;;;;;2.03;1.90;;;;;;;;;;5083629;28;20745;-63
2022/07/19 13:16:08;;;;;;;2.38;1.90;;;;;;;;;;5083625;28;20205;-63
2022/07/19 13:18:35;;;;;;;8.60;2.28;;;;;;;;;;5083690;28;20213;-65
2022/07/19 13:21:03;;;;;;;2.03;1.83;;;;;;;;;;5083117;28;20213;-64
2022/07/19 13:23:30;;;;;;;2.10;2.00;;;;;;;;;;5079764;28;20206;-65
2022/07/19 13:25:57;;;;;;;3.00;1.90;;;;;;;;;;5082993;28;20713;-64
2022/07/19 13:28:25;;;;;;;2.08;1.98;;;;;;;;;;5082338;28;20238;-64
2022/07/19 13:30:52;;;;;;;4.38;1.90;;;;;;;;;;5080968;28;20210;-64
2022/07/19 13:33:19;;;;;;;2.35;1.70;;;;;;;;;;5083179;28;20205;-65
2022/07/19 13:35:46;;;;;;;3.95;1.80;;;;;;;;;;5086860;28;20263;-63
2022/07/19 13:38:13;;;;;;;5.03;2.00;;;;;;;;;;5087907;28;20239;-63
2022/07/19 13:40:40;;;;;;;2.20;2.10;;;;;;;;;;5086922;28;20213;-63
2022/07/19 13:43:07;;;;;;;4.18;2.15;;;;;;;;;;5082076;28;20769;-64
2022/07/19 13:45:36;;;;;;;2.00;1.92;;;;;;;;;;5086175;28;20229;-63
2022/07/19 13:48:03;;;;;;;2.20;2.10;;;;;;;;;;5085701;28;20208;-64
2022/07/19 13:50:31;;;;;;;2.58;2.22;;;;;;;;;;5086189;28;20217;-64
2022/07/19 13:52:58;;;;;;;3.30;1.95;;;;;;;;;;5086511;28;20279;-63
2022/07/19 13:55:26;;;;;;;2.35;2.13;;;;;;;;;;5086128;28;20231;-64
2022/07/19 13:57:53;;;;;;;2.17;1.85;;;;;;;;;;5086191;28;20742;-65
2022/07/19 14:00:20;;;;;;;1.75;1.60;;;;;;;;;;5086764;28;20270;-64
2022/07/19 14:02:49;;;;;;;5.88;2.33;;;;;;;;;;5086447;28;20263;-63
2022/07/19 14:05:16;;;;;;;2.10;2.00;;;;;;;;;;5086640;28;20239;-63
2022/07/19 14:07:44;;;;;;;2.17;1.90;;;;;;;;;;5086473;28;20259;-63
2022/07/19 14:10:11;;;;;;;1.95;1.85;;;;;;;;;;5086307;28;20210;-63
2022/07/19 14:12:38;;;;;;;2.15;2.05;;;;;;;;;;5086062;28;20210;-64
2022/07/19 14:15:05;;;;;;;2.03;1.92;;;;;;;;;;5085956;28;20205;-65
2022/07/19 14:17:32;;;;;;;3.40;2.00;;;;;;;;;;5086659;28;20279;-64
2022/07/19 14:20:01;;;;;;;2.85;2.65;;;;;;;;;;5086266;28;20792;-64
2022/07/19 14:22:28;;;;;;;1.90;1.80;;;;;;;;;;5086545;28;20667;-64
2022/07/19 14:24:55;;;;;;;7.68;2.00;;;;;;;;;;5086162;28;20233;-64
2022/07/19 14:27:22;;;;;;;2.10;1.95;;;;;;;;;;5085378;28;20623;-64
2022/07/19 14:29:49;;;;;;;5.05;1.80;;;;;;;;;;5085193;28;20266;-64
2022/07/19 14:32:16;;;;;;;4.60;2.08;;;;;;;;;;5086169;28;20209;-64
2022/07/19 14:34:43;;;;;;;2.40;2.20;;;;;;;;;;5086246;28;20624;-67
2022/07/19 14:37:11;;;;;;;2.00;1.90;;;;;;;;;;5083545;28;20252;-67
2022/07/19 14:39:38;;;;;;;2.00;1.80;;;;;;;;;;5086043;28;20274;-67
2022/07/19 14:42:06;;;;;;;3.22;2.22;;;;;;;;;;5085885;28;20202;-66
2022/07/19 14:44:33;;;;;;;2.65;2.15;;;;;;;;;;5077099;28;20217;-67
2022/07/19 14:47:00;;;;;;;2.47;2.35;;;;;;;;;;5084515;28;20248;-67
2022/07/19 14:49:27;;;;;;;3.15;1.92;;;;;;;;;;5085497;28;20667;-66
2022/07/19 14:51:54;;;;;;;2.13;1.98;;;;;;;;;;5085989;28;20222;-67